Time;durP1;ratioP1;P1;durP2;ratioP2;P2;SDS_P1;SDS_P2;PMS_P1;PMS_P2;Temp;Humidity;BMP_temperature;BMP_pressure;BME280_temperature;BME280_humidity;BME280_pressure;Samples;Min_cycle;Max_cycle;Signal;HPM_P1;HPM_P2
2022/11/04 00:01:09;;;;;;;1.38;0.50;;;10.70;99.90;;;;;;4957628;28;20399;-78
2022/11/04 00:03:34;;;;;;;1.90;1.00;;;10.80;99.90;;;;;;4959155;28;20034;-79
2022/11/04 00:06:01;;;;;;;3.50;1.60;;;10.80;99.90;;;;;;4978048;28;20117;-77
2022/11/04 00:08:26;;;;;;;2.85;1.40;;;10.70;99.90;;;;;;4952231;28;20037;-77
2022/11/04 00:13:41;;;;;;;6.00;4.43;;;10.80;99.90;;;;;;4974552;28;20077;-83
2022/11/04 00:18:52;;;;;;;6.05;5.22;;;10.80;99.90;;;;;;4973770;28;20038;-75
2022/11/04 00:29:31;;;;;;;6.45;5.45;;;10.80;99.90;;;;;;4973862;28;20487;-84
2022/11/04 00:34:41;;;;;;;5.75;5.10;;;10.80;99.90;;;;;;4962782;28;20058;-86
2022/11/04 00:37:07;;;;;;;8.48;5.68;;;10.70;99.90;;;;;;4942084;28;20499;-77
2022/11/04 00:39:33;;;;;;;5.55;4.85;;;10.70;99.90;;;;;;4974767;28;20026;-85
2022/11/04 00:41:59;;;;;;;6.85;4.88;;;10.70;99.90;;;;;;4959828;28;20125;-76
2022/11/04 00:44:24;;;;;;;5.78;5.05;;;10.70;99.90;;;;;;4970812;28;20038;-77
2022/11/04 00:46:50;;;;;;;5.72;5.05;;;10.60;99.90;;;;;;4945340;28;20046;-77
2022/11/04 00:49:16;;;;;;;5.00;4.60;;;10.60;99.90;;;;;;4957469;28;20077;-81
2022/11/04 00:51:41;;;;;;;4.68;4.28;;;10.60;99.90;;;;;;4974374;28;20030;-77
2022/11/04 00:54:07;;;;;;;5.95;5.05;;;10.60;99.90;;;;;;4973456;28;20058;-77
2022/11/04 00:56:36;;;;;;;4.28;2.55;;;10.50;99.90;;;;;;4948730;28;20022;-78
2022/11/04 00:59:01;;;;;;;3.10;2.00;;;10.50;99.90;;;;;;4926862;28;20427;-78
2022/11/04 01:01:27;;;;;;;2.65;1.45;;;10.50;99.90;;;;;;4963260;28;20445;-85
2022/11/04 01:03:53;;;;;;;2.45;1.00;;;10.40;99.90;;;;;;4974489;28;20492;-86
2022/11/04 01:06:21;;;;;;;1.80;0.75;;;10.30;99.90;;;;;;4953934;28;20489;-81
2022/11/04 01:08:47;;;;;;;2.38;1.10;;;10.30;99.90;;;;;;4939601;28;20554;-77
2022/11/04 01:11:14;;;;;;;1.42;0.60;;;10.20;99.90;;;;;;4974012;28;20018;-76
2022/11/04 01:13:39;;;;;;;1.73;0.70;;;10.20;99.90;;;;;;4945495;28;20114;-79
2022/11/04 01:16:09;;;;;;;1.67;0.60;;;10.20;99.90;;;;;;4974899;28;20102;-84
2022/11/04 01:18:36;;;;;;;1.52;0.60;;;10.10;99.90;;;;;;4972792;28;20041;-78
2022/11/04 01:21:06;;;;;;;3.42;0.75;;;10.00;99.90;;;;;;4937235;28;20033;-77
2022/11/04 01:23:33;;;;;;;1.38;0.50;;;10.00;99.90;;;;;;4974327;28;20038;-77
2022/11/04 01:25:59;;;;;;;1.60;0.50;;;9.90;99.90;;;;;;4973312;28;20045;-80
2022/11/04 01:28:24;;;;;;;2.50;0.70;;;9.80;99.90;;;;;;4959064;28;20034;-77
2022/11/04 01:30:50;;;;;;;2.45;0.70;;;9.80;99.90;;;;;;4954683;28;20027;-77
2022/11/04 01:33:16;;;;;;;1.40;0.70;;;9.80;99.90;;;;;;4952915;28;20030;-77
2022/11/04 01:35:42;;;;;;;2.65;1.55;;;9.80;99.90;;;;;;4955081;28;20038;-78
2022/11/04 01:38:08;;;;;;;2.78;1.10;;;9.70;99.90;;;;;;4944343;28;20027;-76
2022/11/04 01:40:38;;;;;;;2.05;1.00;;;9.80;99.90;;;;;;4971158;28;20034;-85
2022/11/04 01:43:19;;;;;;;3.75;2.25;;;9.80;99.90;;;;;;4974057;28;20038;-80
2022/11/04 01:45:58;;;;;;;4.88;2.15;;;9.80;99.90;;;;;;4972436;28;20029;-77
2022/11/04 01:48:29;;;;;;;3.72;3.22;;;9.80;99.90;;;;;;4975110;28;20035;-77
2022/11/04 01:50:55;;;;;;;4.47;3.65;;;9.80;99.90;;;;;;4939731;28;20031;-77
2022/11/04 01:53:31;;;;;;;3.22;2.92;;;9.80;99.90;;;;;;4973778;28;20040;-83
2022/11/04 01:56:00;;;;;;;3.25;2.60;;;9.70;99.90;;;;;;4954181;28;20547;-88
2022/11/04 01:58:30;;;;;;;3.72;2.55;;;9.70;99.90;;;;;;4928679;28;20078;-77
2022/11/04 02:00:56;;;;;;;6.10;4.25;;;9.60;99.90;;;;;;4972084;28;20023;-76
2022/11/04 02:03:27;;;;;;;5.55;4.22;;;9.60;99.90;;;;;;4954880;28;20038;-77
2022/11/04 02:05:53;;;;;;;4.35;2.63;;;9.60;99.90;;;;;;4976161;28;20082;-87
2022/11/04 02:08:20;;;;;;;2.85;2.08;;;9.50;99.90;;;;;;4960602;28;20046;-87
2022/11/04 02:10:59;;;;;;;2.97;1.60;;;9.50;99.90;;;;;;4960401;28;20026;-77
2022/11/04 02:13:26;;;;;;;2.83;1.77;;;9.40;99.90;;;;;;4949410;28;20034;-76
2022/11/04 02:16:22;;;;;;;3.10;2.63;;;9.40;99.90;;;;;;4952252;28;20130;-78
2022/11/04 02:19:25;;;;;;;4.00;1.80;;;9.40;99.90;;;;;;4977487;28;20472;-77
2022/11/04 02:22:05;;;;;;;3.72;2.85;;;9.40;99.90;;;;;;4951813;28;20035;-86
2022/11/04 02:24:31;;;;;;;3.65;3.35;;;9.40;99.90;;;;;;4974065;28;20131;-77
2022/11/04 02:27:13;;;;;;;4.72;3.47;;;9.30;99.90;;;;;;4989385;28;20125;-79
2022/11/04 02:30:00;;;;;;;4.57;2.90;;;9.30;99.90;;;;;;5015300;28;20044;-82
2022/11/04 02:32:45;;;;;;;4.28;3.30;;;9.40;99.90;;;;;;5004631;28;20069;-85
2022/11/04 02:35:11;;;;;;;6.50;4.07;;;9.40;99.90;;;;;;5016850;28;20084;-85
2022/11/04 02:38:10;;;;;;;6.05;4.78;;;9.50;99.90;;;;;;5001874;28;20479;-77
2022/11/04 02:40:46;;;;;;;7.70;5.70;;;9.50;99.90;;;;;;5016515;28;20038;-84
2022/11/04 02:43:40;;;;;;;5.85;5.25;;;9.50;99.90;;;;;;4972251;28;20521;-76
2022/11/04 02:46:19;;;;;;;6.50;5.13;;;9.50;99.90;;;;;;4987774;28;20045;-78
2022/11/04 02:48:52;;;;;;;12.45;9.65;;;9.40;99.90;;;;;;5006228;28;20061;-83
2022/11/04 02:51:30;;;;;;;8.73;6.72;;;9.40;99.90;;;;;;4972186;28;20026;-78
2022/11/04 02:54:08;;;;;;;9.63;7.45;;;9.40;99.90;;;;;;4969060;28;20383;-78
2022/11/04 02:56:39;;;;;;;14.93;12.38;;;9.50;99.90;;;;;;4992536;28;20030;-78
2022/11/04 02:59:21;;;;;;;12.85;10.73;;;9.50;99.90;;;;;;4997080;28;20044;-76
2022/11/04 03:01:48;;;;;;;10.77;9.32;;;9.50;99.90;;;;;;5018174;28;20162;-77
2022/11/04 03:04:18;;;;;;;10.02;8.60;;;9.50;99.90;;;;;;4978822;28;20091;-88
2022/11/04 03:06:46;;;;;;;;;;;9.50;99.90;;;;;;4993771;28;20081;-84
2022/11/04 03:09:14;;;;;;;7.18;6.15;;;9.60;99.90;;;;;;4995092;28;19913;-83
2022/11/04 03:11:44;;;;;;;8.23;6.95;;;9.60;99.90;;;;;;4989439;28;20088;-84
2022/11/04 03:14:23;;;;;;;8.35;7.13;;;9.60;99.90;;;;;;4986491;28;20026;-78
2022/11/04 03:16:53;;;;;;;10.35;7.78;;;9.60;99.90;;;;;;4985321;28;20034;-76
2022/11/04 03:19:25;;;;;;;9.45;8.23;;;9.60;99.90;;;;;;4980145;28;20038;-76
2022/11/04 03:22:06;;;;;;;11.82;8.95;;;9.50;99.90;;;;;;5000649;28;20428;-88
2022/11/04 03:24:32;;;;;;;14.25;11.73;;;9.50;99.90;;;;;;4992689;28;20049;-80
2022/11/04 03:27:03;;;;;;;10.70;9.18;;;9.50;99.90;;;;;;5014370;28;20414;-77
2022/11/04 03:29:37;;;;;;;14.57;10.77;;;9.50;99.90;;;;;;5001046;28;20034;-77
2022/11/04 03:32:12;;;;;;;11.55;9.98;;;9.60;99.90;;;;;;5012140;28;20069;-77
2022/11/04 03:34:38;;;;;;;13.13;9.88;;;9.50;99.90;;;;;;4998693;28;20030;-78
2022/11/04 03:37:04;;;;;;;17.40;11.43;;;9.50;99.90;;;;;;5003673;28;20135;-83
2022/11/04 03:39:30;;;;;;;10.27;8.00;;;9.60;99.90;;;;;;5014901;28;20026;-77
2022/11/04 03:41:59;;;;;;;16.92;12.02;;;9.60;99.90;;;;;;5015941;28;20104;-78
2022/11/04 03:44:25;;;;;;;15.30;11.43;;;9.60;99.90;;;;;;5014857;28;20041;-77
2022/11/04 03:46:54;;;;;;;14.27;10.48;;;9.50;99.90;;;;;;4993211;28;20501;-76
2022/11/04 03:49:22;;;;;;;12.65;9.93;;;9.60;99.90;;;;;;5012484;28;20036;-83
2022/11/04 03:51:49;;;;;;;12.73;9.45;;;9.60;99.90;;;;;;4981487;28;20078;-84
2022/11/04 03:54:16;;;;;;;10.98;7.75;;;9.50;99.90;;;;;;4985663;28;20030;-87
2022/11/04 03:57:03;;;;;;;10.98;6.38;;;9.50;99.90;;;;;;4986804;28;20503;-76
2022/11/04 04:00:02;;;;;;;10.57;7.85;;;9.50;99.90;;;;;;4996152;28;20051;-77
2022/11/04 04:02:58;;;;;;;9.73;6.85;;;9.50;99.90;;;;;;5004778;28;20092;-80
2022/11/04 04:05:40;;;;;;;8.32;6.63;;;9.50;99.90;;;;;;5013057;28;20033;-85
2022/11/04 04:08:20;;;;;;;6.68;4.20;;;9.40;99.90;;;;;;4987141;28;20088;-86
2022/11/04 04:11:16;;;;;;;7.43;4.97;;;9.40;99.90;;;;;;4969767;28;20076;-85
2022/11/04 04:13:55;;;;;;;11.85;6.10;;;9.40;99.90;;;;;;5015151;28;20116;-83
2022/11/04 04:16:32;;;;;;;11.00;7.10;;;9.30;99.90;;;;;;4992951;28;20382;-78
2022/11/04 04:19:19;;;;;;;9.57;6.63;;;9.20;99.90;;;;;;5010765;28;20030;-79
2022/11/04 04:21:51;;;;;;;7.40;4.68;;;9.20;99.90;;;;;;4974442;28;20504;-84
2022/11/04 04:29:51;;;;;;;5.88;2.83;;;9.10;99.90;;;;;;4980346;28;20101;-84
2022/11/04 04:32:19;;;;;;;3.60;2.40;;;9.10;99.90;;;;;;4993610;28;20022;-78
2022/11/04 04:34:44;;;;;;;3.85;2.78;;;9.00;99.90;;;;;;4987213;28;20033;-77
2022/11/04 04:37:22;;;;;;;3.95;2.40;;;8.90;99.90;;;;;;4979509;28;20030;-77
2022/11/04 04:45:36;;;;;;;3.92;1.58;;;8.80;99.90;;;;;;5012069;28;20030;-76
2022/11/04 04:48:04;;;;;;;2.72;1.40;;;8.70;99.90;;;;;;4992561;28;20141;-77
2022/11/04 04:50:47;;;;;;;3.28;1.45;;;8.70;99.90;;;;;;5014318;28;20026;-84
2022/11/04 04:53:13;;;;;;;3.35;1.60;;;8.70;99.90;;;;;;4984589;28;20034;-86
2022/11/04 04:55:39;;;;;;;3.95;1.77;;;8.50;99.90;;;;;;4994346;28;20034;-76
2022/11/04 04:58:05;;;;;;;4.55;1.60;;;8.50;99.90;;;;;;4995374;28;20026;-76
2022/11/04 05:00:31;;;;;;;3.03;1.10;;;8.40;99.90;;;;;;5012865;28;20366;-76
2022/11/04 05:02:57;;;;;;;1.85;1.08;;;8.30;99.90;;;;;;4997684;28;20498;-87
2022/11/04 05:05:22;;;;;;;3.42;1.55;;;8.20;99.90;;;;;;4996106;28;20058;-80
2022/11/04 05:07:48;;;;;;;5.25;1.63;;;8.10;99.90;;;;;;4985710;28;20122;-79
2022/11/04 05:10:15;;;;;;;3.15;1.58;;;8.00;99.90;;;;;;4984720;28;20128;-76
2022/11/04 05:15:26;;;;;;;3.40;1.50;;;8.00;99.90;;;;;;4993106;28;20474;-77
2022/11/04 05:18:01;;;;;;;2.95;1.45;;;8.00;99.90;;;;;;4967322;28;20030;-76
2022/11/04 05:20:29;;;;;;;3.05;1.33;;;8.00;99.90;;;;;;5011268;28;20557;-87
2022/11/04 05:22:54;;;;;;;3.05;1.65;;;8.00;99.90;;;;;;4987931;28;20103;-77
2022/11/04 05:25:20;;;;;;;2.53;1.38;;;8.00;99.90;;;;;;4976825;28;20076;-78
2022/11/04 05:27:46;;;;;;;4.43;1.55;;;8.00;99.90;;;;;;5017415;28;20079;-76
2022/11/04 05:30:11;;;;;;;3.47;1.20;;;7.90;99.90;;;;;;4982194;28;20018;-77
2022/11/04 05:32:37;;;;;;;3.72;1.88;;;7.80;99.90;;;;;;4997896;28;20022;-87
2022/11/04 05:35:03;;;;;;;2.30;1.00;;;7.90;99.90;;;;;;4984161;28;20022;-77
2022/11/04 05:37:29;;;;;;;3.15;1.42;;;7.90;99.90;;;;;;4986303;28;20041;-77
2022/11/04 05:39:54;;;;;;;2.65;1.17;;;7.80;99.90;;;;;;5016168;28;20556;-76
2022/11/04 05:42:20;;;;;;;3.35;1.70;;;7.80;99.90;;;;;;4997709;28;20037;-77
2022/11/04 05:44:45;;;;;;;2.20;0.90;;;7.90;99.90;;;;;;4992767;28;20041;-89
2022/11/04 05:47:11;;;;;;;3.47;0.93;;;7.90;99.90;;;;;;4996342;28;20508;-76
2022/11/04 05:49:37;;;;;;;4.30;0.90;;;8.00;99.90;;;;;;5015870;28;20403;-77
2022/11/04 05:52:03;;;;;;;1.77;0.70;;;7.90;99.90;;;;;;5014962;28;20030;-76
2022/11/04 05:54:29;;;;;;;2.38;0.82;;;7.90;99.90;;;;;;5015923;28;20486;-78
2022/11/04 05:56:55;;;;;;;1.48;0.70;;;7.90;99.90;;;;;;4996803;28;20033;-77
2022/11/04 05:59:20;;;;;;;2.60;0.90;;;7.90;99.90;;;;;;5018145;28;20036;-77
2022/11/04 06:01:47;;;;;;;2.83;0.90;;;7.90;99.90;;;;;;5017728;28;20029;-79
2022/11/04 06:04:15;;;;;;;2.60;0.85;;;7.90;99.90;;;;;;4990485;28;20034;-77
2022/11/04 06:06:41;;;;;;;2.72;0.90;;;7.90;99.90;;;;;;5020668;28;20030;-77
2022/11/04 06:09:07;;;;;;;2.83;0.85;;;7.90;99.90;;;;;;5016083;28;20540;-77
2022/11/04 06:11:33;;;;;;;4.85;1.02;;;7.80;99.90;;;;;;4972485;28;20026;-76
2022/11/04 06:13:59;;;;;;;2.42;0.85;;;7.90;99.90;;;;;;5017861;28;20156;-79
2022/11/04 06:16:25;;;;;;;2.35;0.68;;;7.90;99.90;;;;;;4983253;28;20030;-76
2022/11/04 06:18:51;;;;;;;3.90;0.75;;;7.90;99.90;;;;;;4996518;28;20041;-83
2022/11/04 06:21:20;;;;;;;2.88;1.08;;;7.90;99.90;;;;;;4984172;28;20023;-81
2022/11/04 06:23:46;;;;;;;1.85;0.52;;;7.90;99.90;;;;;;5019860;28;20500;-77
2022/11/04 06:26:12;;;;;;;4.65;0.80;;;8.00;99.90;;;;;;5012155;28;20477;-76
2022/11/04 06:28:38;;;;;;;2.47;0.65;;;8.00;99.90;;;;;;5016604;28;20037;-86
2022/11/04 06:31:07;;;;;;;1.73;0.60;;;8.00;99.90;;;;;;4987794;28;20129;-77
2022/11/04 06:33:33;;;;;;;2.35;0.60;;;8.00;99.90;;;;;;4988151;28;20109;-77
2022/11/04 06:36:00;;;;;;;1.55;0.50;;;8.00;99.90;;;;;;4973646;28;20129;-79
2022/11/04 06:38:28;;;;;;;3.78;1.25;;;8.00;99.90;;;;;;5014137;28;20018;-76
2022/11/04 06:40:53;;;;;;;2.22;0.60;;;8.00;99.90;;;;;;5018557;28;20030;-79
2022/11/04 06:43:19;;;;;;;3.72;0.70;;;8.00;99.90;;;;;;4999910;28;20045;-81
2022/11/04 06:45:59;;;;;;;2.42;0.70;;;8.00;99.90;;;;;;4989923;28;20034;-88
2022/11/04 06:48:25;;;;;;;1.60;0.60;;;8.10;99.90;;;;;;4994060;28;20041;-87
2022/11/04 06:50:52;;;;;;;2.35;0.73;;;8.00;99.90;;;;;;4998445;28;20042;-77
2022/11/04 06:53:17;;;;;;;3.88;0.80;;;8.00;99.90;;;;;;5020456;28;20075;-78
2022/11/04 06:55:43;;;;;;;2.90;0.60;;;8.00;99.90;;;;;;4991496;28;20026;-80
2022/11/04 06:58:09;;;;;;;4.93;0.73;;;8.10;99.90;;;;;;4987665;28;20036;-77
2022/11/04 07:00:35;;;;;;;2.88;0.93;;;8.20;99.90;;;;;;4991583;28;20029;-76
2022/11/04 07:03:01;;;;;;;3.83;0.80;;;8.20;99.90;;;;;;4987340;28;20117;-76
2022/11/04 07:05:26;;;;;;;2.20;0.70;;;8.20;99.90;;;;;;4979116;28;20443;-78
2022/11/04 07:07:52;;;;;;;3.80;0.70;;;8.20;99.90;;;;;;4960429;28;20143;-76
2022/11/04 07:10:18;;;;;;;1.52;0.63;;;8.20;99.90;;;;;;4957033;28;20034;-77
2022/11/04 07:12:43;;;;;;;3.00;1.13;;;8.30;99.90;;;;;;4991990;28;20065;-82
2022/11/04 07:15:10;;;;;;;3.45;0.60;;;8.30;99.90;;;;;;4955262;28;20061;-79
2022/11/04 07:17:35;;;;;;;3.72;0.70;;;8.40;99.90;;;;;;4967820;28;20040;-81
2022/11/04 07:20:01;;;;;;;4.70;0.65;;;8.40;99.90;;;;;;4961092;28;20042;-77
2022/11/04 07:22:27;;;;;;;3.17;0.50;;;8.40;99.90;;;;;;4994957;28;20022;-77
2022/11/04 07:24:53;;;;;;;1.77;0.50;;;8.40;99.90;;;;;;4975426;28;20534;-79
2022/11/04 07:27:19;;;;;;;1.70;0.50;;;8.40;99.90;;;;;;4958347;28;20108;-80
2022/11/04 07:29:45;;;;;;;1.83;0.50;;;8.40;99.90;;;;;;4958433;28;20049;-77
2022/11/04 07:32:11;;;;;;;1.42;0.43;;;8.40;99.90;;;;;;4958573;28;20042;-77
2022/11/04 07:34:38;;;;;;;1.52;0.47;;;8.40;99.90;;;;;;4958745;28;20034;-79
2022/11/04 07:37:04;;;;;;;2.53;0.68;;;8.40;99.90;;;;;;4959896;28;20042;-78
2022/11/04 07:39:30;;;;;;;2.10;0.55;;;8.40;99.90;;;;;;4978487;28;20038;-79
2022/11/04 07:41:56;;;;;;;2.13;0.47;;;8.30;99.90;;;;;;4964395;28;20469;-78
2022/11/04 07:44:22;;;;;;;3.47;0.50;;;8.20;99.90;;;;;;4982767;28;20272;-78
2022/11/04 07:46:49;;;;;;;1.92;0.70;;;8.20;99.90;;;;;;4983462;28;20034;-78
2022/11/04 07:49:15;;;;;;;2.83;0.57;;;8.20;99.90;;;;;;4958825;28;20399;-78
2022/11/04 07:51:41;;;;;;;2.70;0.60;;;8.30;99.90;;;;;;4950473;28;20091;-79
2022/11/04 07:54:07;;;;;;;1.80;0.60;;;8.20;99.90;;;;;;4957680;28;20069;-77
2022/11/04 07:56:33;;;;;;;1.70;0.60;;;8.20;99.90;;;;;;4957301;28;20520;-79
2022/11/04 07:58:59;;;;;;;2.05;0.63;;;8.20;99.90;;;;;;4988383;28;20488;-78
2022/11/04 08:01:25;;;;;;;3.53;0.85;;;8.30;99.90;;;;;;4973269;28;20055;-77
2022/11/04 08:03:51;;;;;;;1.55;0.70;;;8.30;99.90;;;;;;4964382;28;20050;-77
2022/11/04 08:06:19;;;;;;;3.22;1.15;;;8.30;99.90;;;;;;4991710;28;20030;-79
2022/11/04 08:08:46;;;;;;;2.15;0.60;;;8.30;99.90;;;;;;4969026;28;20062;-78
2022/11/04 08:11:18;;;;;;;2.42;0.65;;;8.40;99.90;;;;;;4994346;28;20032;-77
2022/11/04 08:13:46;;;;;;;1.20;0.57;;;8.50;99.90;;;;;;4991078;28;20057;-77
2022/11/04 08:16:20;;;;;;;2.25;0.60;;;8.60;99.90;;;;;;4957420;28;20802;-84
2022/11/04 08:18:48;;;;;;;2.58;0.60;;;8.60;99.90;;;;;;4980199;28;20026;-83
2022/11/04 08:21:14;;;;;;;1.83;0.40;;;8.70;99.90;;;;;;4973673;28;20030;-78
2022/11/04 08:23:39;;;;;;;3.33;0.65;;;8.80;99.90;;;;;;4982832;28;20186;-77
2022/11/04 08:26:10;;;;;;;2.35;0.68;;;8.90;99.90;;;;;;4986133;28;20181;-88
2022/11/04 08:28:36;;;;;;;2.58;0.50;;;9.00;99.90;;;;;;4998949;28;20160;-84
2022/11/04 08:31:05;;;;;;;2.10;0.47;;;9.00;99.90;;;;;;4970490;28;20050;-81
2022/11/04 08:33:33;;;;;;;1.80;0.60;;;9.10;99.90;;;;;;5012803;28;20493;-84
2022/11/04 08:36:05;;;;;;;3.83;0.80;;;9.30;99.90;;;;;;4989942;28;20112;-78
2022/11/04 08:38:30;;;;;;;1.98;0.50;;;9.40;99.90;;;;;;4994235;28;20033;-86
2022/11/04 08:40:57;;;;;;;2.92;0.77;;;9.50;99.90;;;;;;5010965;28;20030;-86
2022/11/04 08:43:24;;;;;;;1.80;0.60;;;9.50;99.90;;;;;;5012580;28;20041;-91
2022/11/04 08:45:51;;;;;;;2.50;0.80;;;9.60;99.90;;;;;;5012338;28;20025;-77
2022/11/04 08:48:16;;;;;;;2.45;0.70;;;9.70;99.90;;;;;;4977340;28;20037;-89
2022/11/04 08:50:42;;;;;;;3.13;0.60;;;9.80;99.90;;;;;;5014990;28;20040;-78
2022/11/04 08:53:08;;;;;;;1.67;0.70;;;9.80;99.90;;;;;;5011330;28;20029;-83
2022/11/04 08:55:34;;;;;;;3.17;0.50;;;10.00;99.90;;;;;;4996985;28;20108;-88
2022/11/04 08:58:01;;;;;;;3.50;0.60;;;10.00;99.90;;;;;;4995081;28;20025;-78
2022/11/04 09:00:27;;;;;;;2.00;0.63;;;10.10;99.90;;;;;;5013450;28;20462;-89
2022/11/04 09:02:54;;;;;;;1.92;0.50;;;10.20;99.90;;;;;;4998291;28;20065;-80
2022/11/04 09:05:20;;;;;;;2.35;0.47;;;10.20;99.90;;;;;;5010397;28;20320;-88
2022/11/04 09:07:46;;;;;;;2.28;0.50;;;10.30;99.90;;;;;;4995395;28;20246;-83
2022/11/04 09:10:11;;;;;;;4.03;0.60;;;10.40;99.90;;;;;;4995010;28;20034;-88
2022/11/04 09:12:37;;;;;;;2.00;0.60;;;10.40;99.90;;;;;;5016878;28;20140;-88
2022/11/04 09:15:04;;;;;;;2.05;0.50;;;10.70;99.90;;;;;;4998061;28;20018;-86
2022/11/04 09:17:30;;;;;;;2.80;1.00;;;11.00;99.90;;;;;;5017909;28;20037;-87
2022/11/04 09:19:56;;;;;;;4.75;0.70;;;11.20;99.90;;;;;;5006732;28;20030;-78
2022/11/04 09:22:22;;;;;;;3.33;0.60;;;11.30;99.90;;;;;;4998458;28;20030;-82
2022/11/04 09:24:47;;;;;;;4.50;0.70;;;11.40;99.90;;;;;;5017648;28;20137;-78
2022/11/04 09:27:13;;;;;;;4.28;0.68;;;11.50;99.90;;;;;;5016641;28;20029;-79
2022/11/04 09:29:39;;;;;;;2.00;0.60;;;11.30;99.90;;;;;;5005680;28;20112;-78
2022/11/04 09:32:06;;;;;;;3.45;0.70;;;11.20;99.90;;;;;;5018428;28;20026;-88
2022/11/04 09:34:32;;;;;;;2.20;0.90;;;11.20;99.90;;;;;;4996257;28;20022;-79
2022/11/04 09:36:58;;;;;;;3.33;0.55;;;11.00;99.90;;;;;;5017080;28;20106;-86
2022/11/04 09:39:25;;;;;;;2.20;0.40;;;11.20;99.90;;;;;;4997664;28;20040;-83
2022/11/04 09:42:29;;;;;;;2.45;0.50;;;11.20;99.90;;;;;;5017424;28;20030;-78
2022/11/04 09:45:04;;;;;;;1.65;0.40;;;11.20;99.90;;;;;;4973793;28;20099;-82
2022/11/04 09:47:32;;;;;;;2.40;0.50;;;11.10;99.90;;;;;;4992080;28;20455;-86
2022/11/04 09:50:00;;;;;;;2.13;0.75;;;11.20;99.90;;;;;;5006058;28;20053;-82
2022/11/04 09:52:40;;;;;;;4.47;0.57;;;11.10;99.90;;;;;;5014846;28;20029;-78
2022/11/04 09:55:19;;;;;;;3.90;0.90;;;11.30;99.90;;;;;;4989992;28;20102;-86
2022/11/04 09:57:51;;;;;;;4.45;1.38;;;11.10;99.90;;;;;;5019990;28;20026;-82
2022/11/04 10:00:19;;;;;;;4.15;1.52;;;11.00;99.90;;;;;;4985428;28;20029;-79
2022/11/04 10:03:03;;;;;;;3.85;0.85;;;11.20;99.90;;;;;;5004051;28;20103;-81
2022/11/04 10:05:54;;;;;;;4.57;0.90;;;11.30;99.90;;;;;;4987480;28;20097;-81
2022/11/04 10:09:17;;;;;;;5.20;1.50;;;11.30;99.90;;;;;;4987675;28;20487;-84
2022/11/04 10:11:55;;;;;;;7.93;1.85;;;11.10;99.90;;;;;;4965166;28;20038;-78
2022/11/04 10:14:49;;;;;;;5.65;1.30;;;11.00;99.90;;;;;;4964937;28;20121;-77
2022/11/04 10:17:43;;;;;;;8.48;1.25;;;11.20;99.90;;;;;;4965447;28;20042;-79
2022/11/04 10:20:37;;;;;;;7.40;2.25;;;11.20;99.90;;;;;;4934106;28;20031;-79
2022/11/04 10:23:33;;;;;;;8.10;3.08;;;11.10;99.90;;;;;;4964742;28;20126;-85
2022/11/04 10:26:16;;;;;;;8.00;2.45;;;11.20;99.90;;;;;;4949048;28;20055;-82
2022/11/04 10:28:55;;;;;;;6.35;2.30;;;11.10;99.90;;;;;;4965358;28;20056;-84
2022/11/04 10:31:21;;;;;;;10.00;3.45;;;11.30;99.90;;;;;;4965301;28;20046;-85
2022/11/04 10:34:04;;;;;;;7.32;2.53;;;11.10;99.90;;;;;;4948303;28;20034;-89
2022/11/04 10:36:31;;;;;;;7.95;2.92;;;11.20;99.90;;;;;;4964899;28;20053;-79
2022/11/04 10:39:00;;;;;;;10.30;4.80;;;11.30;99.90;;;;;;4965816;28;20353;-79
2022/11/04 10:41:33;;;;;;;13.88;6.13;;;11.20;99.90;;;;;;4973233;28;20048;-85
2022/11/04 10:44:13;;;;;;;9.88;5.25;;;11.10;99.90;;;;;;5004002;28;20076;-79
2022/11/04 10:47:06;;;;;;;10.13;5.65;;;11.10;99.90;;;;;;5007765;28;20065;-89
2022/11/04 10:49:47;;;;;;;12.02;6.30;;;11.10;99.90;;;;;;4986423;28;20446;-89
2022/11/04 10:52:12;;;;;;;13.57;6.25;;;11.10;99.90;;;;;;4986230;28;20467;-79
2022/11/04 10:54:44;;;;;;;14.93;7.65;;;11.10;99.90;;;;;;4982104;28;20022;-83
2022/11/04 10:57:19;;;;;;;11.88;7.13;;;11.00;99.90;;;;;;4984192;28;20582;-83
2022/11/04 10:59:55;;;;;;;9.55;6.80;;;11.00;99.90;;;;;;4982376;28;20030;-88
2022/11/04 11:02:53;;;;;;;13.77;8.32;;;11.10;99.90;;;;;;5007465;28;21096;-79
2022/11/04 11:05:19;;;;;;;10.82;7.35;;;10.90;99.90;;;;;;4982300;28;20041;-79
2022/11/04 11:07:46;;;;;;;15.43;8.32;;;10.90;99.90;;;;;;4982185;28;20119;-85
2022/11/04 11:10:19;;;;;;;10.60;7.07;;;11.10;99.90;;;;;;4988586;28;20061;-82
2022/11/04 11:13:03;;;;;;;14.68;7.32;;;11.10;99.90;;;;;;4985544;28;20037;-82
2022/11/04 11:15:35;;;;;;;13.15;7.45;;;11.20;99.90;;;;;;4983395;28;20026;-82
2022/11/04 11:18:07;;;;;;;10.35;7.38;;;11.20;99.90;;;;;;4983241;28;22091;-78
2022/11/04 11:20:36;;;;;;;13.63;7.13;;;11.30;99.90;;;;;;5008572;28;20352;-76
2022/11/04 11:23:08;;;;;;;14.80;6.82;;;11.30;99.90;;;;;;5003851;28;20052;-82
2022/11/04 11:25:44;;;;;;;11.07;7.93;;;11.30;99.90;;;;;;4988638;28;20049;-79
2022/11/04 11:28:20;;;;;;;13.93;7.18;;;11.20;99.90;;;;;;4985359;28;20061;-81
2022/11/04 11:30:46;;;;;;;15.75;7.63;;;11.30;99.90;;;;;;5007577;28;20485;-88
2022/11/04 11:33:26;;;;;;;8.80;5.43;;;11.30;99.90;;;;;;5007575;28;20041;-82
2022/11/04 11:35:53;;;;;;;;;;;11.40;99.90;;;;;;5006935;28;20033;-86
2022/11/04 11:38:28;;;;;;;13.82;6.60;;;11.40;99.90;;;;;;5003821;28;19948;-81
2022/11/04 11:41:09;;;;;;;9.25;4.50;;;11.50;99.90;;;;;;4964568;28;20410;-80
2022/11/04 11:43:41;;;;;;;7.07;4.32;;;11.70;99.90;;;;;;5005658;28;20116;-84
2022/11/04 11:46:07;;;;;;;8.90;5.70;;;11.70;99.90;;;;;;4989798;28;20052;-78
2022/11/04 11:48:39;;;;;;;14.38;7.30;;;12.00;99.90;;;;;;5005030;28;20033;-78
2022/11/04 11:51:06;;;;;;;11.02;7.03;;;11.90;99.90;;;;;;5006974;28;20036;-76
2022/11/04 11:53:38;;;;;;;11.52;6.05;;;12.00;99.90;;;;;;5009299;28;20022;-78
2022/11/04 11:56:37;;;;;;;11.43;5.78;;;12.10;99.90;;;;;;4983243;28;20037;-82
2022/11/04 11:59:33;;;;;;;8.88;6.38;;;12.10;99.90;;;;;;5007385;28;20041;-82
2022/11/04 12:02:18;;;;;;;10.70;5.93;;;12.00;99.90;;;;;;4979941;28;20731;-76
2022/11/04 12:04:44;;;;;;;11.75;6.00;;;11.90;99.90;;;;;;5004789;28;20230;-84
2022/11/04 12:07:37;;;;;;;11.05;6.00;;;11.90;99.90;;;;;;4982906;28;20454;-75
2022/11/04 12:10:23;;;;;;;8.77;5.25;;;11.90;99.90;;;;;;4968429;28;20033;-83
2022/11/04 12:13:09;;;;;;;9.38;5.00;;;11.90;99.90;;;;;;5006801;28;20200;-77
2022/11/04 12:15:46;;;;;;;6.05;4.07;;;11.90;99.90;;;;;;4985963;28;20030;-81
2022/11/04 12:18:35;;;;;;;4.93;3.22;;;12.10;99.90;;;;;;5002081;28;20117;-81
2022/11/04 12:21:20;;;;;;;9.85;5.88;;;12.00;99.90;;;;;;5004573;28;20053;-82
2022/11/04 12:24:16;;;;;;;6.60;3.42;;;11.90;99.90;;;;;;4971641;28;20049;-82
2022/11/04 12:26:58;;;;;;;4.25;2.42;;;12.10;99.90;;;;;;5003538;28;20050;-80
2022/11/04 12:29:35;;;;;;;4.35;1.90;;;12.10;99.90;;;;;;4987102;28;20030;-78
2022/11/04 12:32:23;;;;;;;4.43;2.20;;;12.20;99.90;;;;;;4983507;28;20026;-85
2022/11/04 12:35:09;;;;;;;8.15;3.40;;;12.20;99.90;;;;;;4981604;28;20030;-83
2022/11/04 12:38:11;;;;;;;7.18;3.20;;;12.20;99.90;;;;;;4984243;28;20034;-83
2022/11/04 12:40:50;;;;;;;5.05;2.17;;;12.20;99.90;;;;;;5005518;28;20255;-89
2022/11/04 12:43:48;;;;;;;6.32;3.70;;;12.30;99.90;;;;;;5000516;28;20030;-80
2022/11/04 12:46:47;;;;;;;10.57;4.13;;;12.20;99.90;;;;;;4937897;29;20096;-77
2022/11/04 12:49:41;;;;;;;8.65;5.25;;;12.10;99.90;;;;;;4922802;29;20031;-75
2022/11/04 12:52:14;;;;;;;9.98;4.85;;;12.10;99.90;;;;;;4927271;29;20097;-77
2022/11/04 12:54:43;;;;;;;6.68;3.03;;;12.10;99.90;;;;;;4941926;29;20067;-82
2022/11/04 12:57:35;;;;;;;7.93;4.45;;;12.20;99.90;;;;;;4941276;29;20036;-86
2022/11/04 13:00:15;;;;;;;7.20;3.70;;;12.20;99.90;;;;;;4926634;29;20119;-86
2022/11/04 13:03:07;;;;;;;5.75;2.75;;;12.20;99.90;;;;;;4926822;29;20043;-77
2022/11/04 13:05:43;;;;;;;6.68;3.25;;;12.30;99.90;;;;;;4942134;29;20098;-79
2022/11/04 13:08:30;;;;;;;4.65;2.50;;;12.40;99.90;;;;;;4937156;29;20130;-77
2022/11/04 13:11:05;;;;;;;11.23;6.18;;;12.50;99.90;;;;;;4941316;29;20605;-80
2022/11/04 13:13:35;;;;;;;14.43;7.22;;;12.40;99.90;;;;;;4918973;29;20506;-80
2022/11/04 13:16:05;;;;;;;10.57;6.60;;;12.40;99.90;;;;;;4907266;29;20040;-77
2022/11/04 13:18:35;;;;;;;10.25;5.70;;;12.40;99.90;;;;;;4903502;29;20480;-78
2022/11/04 13:21:07;;;;;;;9.18;6.45;;;12.50;99.90;;;;;;4925088;29;20027;-76
2022/11/04 13:24:03;;;;;;;9.50;5.82;;;12.40;99.90;;;;;;4978927;28;20042;-77
2022/11/04 13:26:30;;;;;;;5.10;3.47;;;12.40;99.90;;;;;;4974704;28;20100;-74
2022/11/04 13:29:03;;;;;;;7.38;4.40;;;12.70;99.90;;;;;;5003022;28;20088;-76
2022/11/04 13:31:53;;;;;;;11.10;7.35;;;12.80;99.90;;;;;;5002123;28;20036;-80
2022/11/04 13:34:46;;;;;;;15.20;8.25;;;12.70;99.90;;;;;;4975144;28;20046;-88
2022/11/04 13:37:24;;;;;;;9.73;7.60;;;12.50;99.90;;;;;;4987520;28;20061;-77
2022/11/04 13:40:22;;;;;;;11.07;8.18;;;12.50;99.90;;;;;;5006291;28;20044;-80
2022/11/04 13:42:50;;;;;;;10.93;8.02;;;12.30;99.90;;;;;;5003287;28;20069;-76
2022/11/04 13:45:18;;;;;;;11.23;8.13;;;12.30;99.90;;;;;;4983602;28;20045;-75
2022/11/04 13:47:52;;;;;;;10.02;7.32;;;12.40;99.90;;;;;;4969215;28;20222;-83